Lowndes, Missouri
Current Conditions -  °F | °C
As of 2:53 PM on Sunday 21 Dec 2014 (Local Time) from KPOF Reporting Station
Overcast Overcast  
Wind Chill: 43°   Ceiling: 4200
Heat Index: 43°   Visibility: 10mi
Dew Point: 32°   Wind: 3mph
Humidity: 65%   Direction: 80°E
Pressure: 30.06"   Gusts: NA
Location:  37.15°N, 90.26°W
Report Text: KPOF 212053Z AUTO 08003KT 10SM OVC042 06/00 A3006 RMK AO2 SLP184 T00610000 56031
Loading
Personal Weather Stations






























Interactive Weather Map New forecast layout! Learn more

10-Day Weather Forecast

Advertisements
Track Severe Weather on mobile